Time;durP1;ratioP1;P1;durP2;ratioP2;P2;SDS_P1;SDS_P2;PMS_P1;PMS_P2;Temp;Humidity;BMP_temperature;BMP_pressure;BME280_temperature;BME280_humidity;BME280_pressure;Samples;Min_cycle;Max_cycle;Signal;HPM_P1;HPM_P2
2022/01/14 00:01:01;;;;;;;57.80;18.13;;;;;;;2.39;100.00;103744.06;5094788;28;20086;-65
2022/01/14 00:03:26;;;;;;;38.67;17.65;;;;;;;2.35;100.00;103742.06;5094685;28;20495;-64
2022/01/14 00:05:52;;;;;;;46.13;18.83;;;;;;;2.36;100.00;103746.44;5094590;28;20036;-64
2022/01/14 00:08:19;;;;;;;49.20;18.70;;;;;;;2.33;100.00;103752.31;5094806;28;20111;-66
2022/01/14 00:10:49;;;;;;;47.00;17.30;;;;;;;2.32;100.00;103742.75;5094553;28;20117;-65
2022/01/14 00:13:38;;;;;;;52.70;16.55;;;;;;;2.26;100.00;103752.66;5094464;28;20032;-65
2022/01/14 00:16:00;;;;;;;48.17;17.35;;;;;;;2.27;100.00;103740.66;5094107;28;20115;-65
2022/01/14 00:18:25;;;;;;;49.88;17.30;;;;;;;2.31;100.00;103738.38;5094382;28;20170;-64
2022/01/14 00:20:50;;;;;;;40.00;17.30;;;;;;;2.24;100.00;103749.13;5094603;28;20032;-66
2022/01/14 00:23:17;;;;;;;48.53;16.55;;;;;;;2.19;100.00;103736.69;5094562;28;20040;-66
2022/01/14 00:33:54;;;;;;;38.78;17.35;;;;;;;2.18;100.00;103716.81;5093881;28;20549;-64
2022/01/14 00:36:19;;;;;;;46.03;17.60;;;;;;;2.15;100.00;103719.16;5094858;28;20060;-66
2022/01/14 00:38:44;;;;;;;55.28;18.00;;;;;;;2.18;100.00;103719.38;5094469;28;20402;-67
2022/01/14 00:41:10;;;;;;;47.53;18.42;;;;;;;2.22;100.00;103727.44;5094348;28;20042;-65
2022/01/14 00:43:37;;;;;;;44.72;17.77;;;;;;;2.23;100.00;103729.25;5096333;28;20054;-66
2022/01/14 00:46:02;;;;;;;50.85;17.60;;;;;;;2.12;100.00;103709.53;5097855;28;20028;-67
2022/01/14 00:48:28;;;;;;;49.13;17.42;;;;;;;2.13;100.00;103700.09;5098076;28;20047;-65
2022/01/14 00:50:53;;;;;;;49.00;16.65;;;;;;;2.14;100.00;103696.72;5097953;28;20042;-63
2022/01/14 00:53:18;;;;;;;46.70;17.90;;;;;;;2.16;100.00;103701.19;5097833;28;20085;-64
2022/01/14 00:55:59;;;;;;;47.58;18.15;;;;;;;2.12;100.00;103688.84;5097641;28;20288;-64
2022/01/14 01:01:09;;;;;;;51.80;16.35;;;;;;;2.09;100.00;103678.31;5097737;28;20039;-64
2022/01/14 01:03:35;;;;;;;57.03;18.27;;;;;;;2.07;100.00;103680.84;5097875;28;20488;-65
2022/01/14 01:06:01;;;;;;;47.30;17.85;;;;;;;2.07;100.00;103675.66;5097470;28;20037;-64
2022/01/14 01:08:28;;;;;;;48.03;17.42;;;;;;;2.07;100.00;103672.19;5097356;28;20032;-67
2022/01/14 01:10:53;;;;;;;68.55;16.88;;;;;;;2.14;100.00;103674.38;5096954;28;20561;-65
2022/01/14 01:13:33;;;;;;;58.83;16.85;;;;;;;2.00;100.00;103669.97;5097360;28;20114;-65
2022/01/14 01:15:58;;;;;;;55.55;17.73;;;;;;;2.00;100.00;103672.56;5097584;28;20397;-65
2022/01/14 01:18:23;;;;;;;51.90;16.80;;;;;;;2.02;100.00;103670.97;5097421;28;20032;-66
2022/01/14 01:20:50;;;;;;;81.55;16.67;;;;;;;2.03;100.00;103663.34;5097236;28;20028;-65
2022/01/14 01:23:16;;;;;;;67.85;16.02;;;;;;;2.04;100.00;103666.81;5097062;28;20028;-67
2022/01/14 01:25:46;;;;;;;48.65;15.75;;;;;;;1.96;100.00;103660.22;5097521;28;20032;-66
2022/01/14 01:28:12;;;;;;;50.00;15.18;;;;;;;2.00;100.00;103664.81;5097188;28;20074;-64
2022/01/14 01:30:50;;;;;;;51.17;16.00;;;;;;;2.07;100.00;103667.03;5097155;28;20434;-65
2022/01/14 01:33:16;;;;;;;52.42;15.80;;;;;;;1.98;100.00;103661.22;5096655;28;20043;-65
2022/01/14 01:35:42;;;;;;;40.15;14.98;;;;;;;1.96;100.00;103667.97;5097399;28;20393;-66
2022/01/14 01:38:08;;;;;;;49.58;15.43;;;;;;;1.98;100.00;103672.44;5096947;28;20028;-64
2022/01/14 01:40:34;;;;;;;63.25;15.25;;;;;;;1.97;100.00;103667.19;5096830;28;20550;-64
2022/01/14 01:43:03;;;;;;;48.65;15.45;;;;;;;1.93;100.00;103671.25;5096836;28;20028;-66
2022/01/14 01:45:28;;;;;;;46.85;15.25;;;;;;;1.94;100.00;103660.13;5096660;28;20088;-63
2022/01/14 01:47:54;;;;;;;55.47;16.40;;;;;;;1.88;100.00;103661.41;5096623;28;20024;-64
2022/01/14 01:50:26;;;;;;;52.30;15.27;;;;;;;1.91;100.00;103659.00;5096768;28;20032;-65
2022/01/14 01:52:52;;;;;;;54.53;13.52;;;;;;;1.83;100.00;103640.44;5096859;28;20439;-64
2022/01/14 01:55:18;;;;;;;55.25;15.45;;;;;;;1.81;100.00;103651.47;5095861;28;20028;-65
2022/01/14 01:57:44;;;;;;;45.53;14.05;;;;;;;1.83;100.00;103652.47;5096191;28;20348;-65
2022/01/14 02:00:13;;;;;;;60.47;14.52;;;;;;;1.75;100.00;103660.56;5096807;28;20145;-65
2022/01/14 02:02:38;;;;;;;51.60;14.80;;;;;;;1.74;100.00;103663.03;5096353;28;20075;-63
2022/01/14 02:05:05;;;;;;;54.00;14.95;;;;;;;1.68;100.00;103660.97;5096379;28;20075;-64
2022/01/14 02:07:34;;;;;;;55.83;16.45;;;;;;;1.78;100.00;103666.75;5096311;28;20399;-65
2022/01/14 02:10:00;;;;;;;45.03;14.45;;;;;;;1.75;100.00;103662.25;5096450;28;20027;-65
2022/01/14 02:12:34;;;;;;;36.63;14.48;;;;;;;1.72;100.00;103657.81;5096603;28;20081;-65
2022/01/14 02:15:12;;;;;;;41.83;14.45;;;;;;;1.72;100.00;103655.22;5096435;28;20091;-65
2022/01/14 02:18:14;;;;;;;43.50;14.48;;;;;;;1.74;100.00;103647.56;5096383;28;20111;-64
2022/01/14 02:23:17;;;;;;;43.17;14.02;;;;;;;1.72;100.00;103636.25;5096590;28;20101;-65
2022/01/14 02:25:44;;;;;;;39.90;15.32;;;;;;;1.70;100.00;103633.56;5096067;28;20062;-66
2022/01/14 02:28:13;;;;;;;46.65;14.07;;;;;;;1.62;100.00;103633.84;5096298;28;20043;-64
2022/01/14 02:30:41;;;;;;;36.42;15.00;;;;;;;1.66;100.00;103634.16;5096027;28;20101;-66
2022/01/14 02:33:07;;;;;;;38.72;15.15;;;;;;;1.69;100.00;103634.38;5095884;28;20034;-64
2022/01/14 02:35:33;;;;;;;33.13;14.52;;;;;;;1.66;100.00;103622.94;5095874;28;20102;-65
2022/01/14 02:37:58;;;;;;;30.55;14.68;;;;;;;1.73;100.00;103625.16;5095773;28;20032;-64
2022/01/14 02:40:24;;;;;;;32.70;14.13;;;;;;;1.73;100.00;103626.00;5095539;28;20143;-64
2022/01/14 02:42:50;;;;;;;38.72;13.77;;;;;;;1.67;100.00;103615.28;5095615;28;20092;-65
2022/01/14 02:45:16;;;;;;;36.05;13.65;;;;;;;1.70;100.00;103622.34;5095732;28;20027;-62
2022/01/14 02:47:42;;;;;;;38.92;14.38;;;;;;;1.62;100.00;103618.34;5095733;28;20109;-64
2022/01/14 02:50:12;;;;;;;44.78;13.98;;;;;;;1.65;100.00;103629.78;5095510;28;20032;-64
2022/01/14 02:52:56;;;;;;;40.00;13.70;;;;;;;1.64;100.00;103630.56;5095737;28;20042;-64
2022/01/14 02:55:29;;;;;;;50.55;13.77;;;;;;;1.62;100.00;103611.50;5095523;28;20102;-64
2022/01/14 02:57:57;;;;;;;45.95;14.23;;;;;;;1.64;100.00;103622.81;5095693;28;20115;-65
2022/01/14 03:00:28;;;;;;;38.80;13.27;;;;;;;1.65;100.00;103618.56;5095485;28;20023;-66
2022/01/14 03:02:54;;;;;;;34.97;13.93;;;;;;;1.56;100.00;103613.66;5095371;28;20343;-67
2022/01/14 03:05:20;;;;;;;40.50;13.10;;;;;;;1.58;100.00;103622.41;5094993;28;20118;-66
2022/01/14 03:07:47;;;;;;;41.20;13.57;;;;;;;1.55;100.00;103624.81;5094606;28;20024;-64
2022/01/14 03:10:16;;;;;;;43.97;13.45;;;;;;;1.54;100.00;103623.00;5094797;28;20032;-64
2022/01/14 03:12:43;;;;;;;61.80;15.25;;;;;;;1.59;100.00;103621.63;5095177;28;20028;-65
2022/01/14 03:15:10;;;;;;;72.47;13.95;;;;;;;1.63;100.00;103612.41;5095342;28;20408;-64
2022/01/14 03:17:35;;;;;;;62.80;14.40;;;;;;;1.47;100.00;103610.47;5095073;28;20042;-64
2022/01/14 03:20:02;;;;;;;41.75;14.13;;;;;;;1.50;100.00;103623.59;5095091;28;20020;-65
2022/01/14 03:22:35;;;;;;;47.63;14.02;;;;;;;1.52;100.00;103627.16;5095213;28;20032;-64
2022/01/14 03:27:48;;;;;;;40.03;13.60;;;;;;;1.55;100.00;103623.91;5095254;28;20046;-64
2022/01/14 03:30:14;;;;;;;45.58;13.98;;;;;;;1.61;100.00;103627.78;5094957;28;20032;-64
2022/01/14 03:32:40;;;;;;;52.20;14.45;;;;;;;1.51;100.00;103615.06;5094867;28;20152;-65
2022/01/14 03:35:07;;;;;;;55.08;14.27;;;;;;;1.54;100.00;103628.16;5095182;28;20028;-64
2022/01/14 03:37:33;;;;;;;38.45;14.38;;;;;;;1.53;100.00;103621.22;5094991;28;20107;-63
2022/01/14 03:39:59;;;;;;;51.90;13.88;;;;;;;1.49;100.00;103621.78;5095022;28;20067;-64
2022/01/14 03:42:24;;;;;;;55.92;13.57;;;;;;;1.52;100.00;103615.94;5094767;28;20040;-63
2022/01/14 03:44:49;;;;;;;27.80;12.75;;;;;;;1.44;100.00;103601.63;5094909;28;20101;-65
2022/01/14 03:47:15;;;;;;;39.20;13.13;;;;;;;1.54;100.00;103602.38;5095239;28;20467;-66
2022/01/14 03:49:40;;;;;;;39.55;12.88;;;;;;;1.58;100.00;103606.91;5094913;28;20039;-65
2022/01/14 03:52:06;;;;;;;51.67;13.23;;;;;;;1.56;100.00;103615.38;5095035;28;20039;-64
2022/01/14 03:54:31;;;;;;;57.80;14.00;;;;;;;1.49;100.00;103610.56;5094989;28;20073;-64
2022/01/14 03:56:56;;;;;;;45.53;13.43;;;;;;;1.49;100.00;103621.78;5094747;28;20028;-64
2022/01/14 03:59:21;;;;;;;71.22;13.95;;;;;;;1.46;100.00;103615.53;5094947;28;20036;-65
2022/01/14 04:01:47;;;;;;;54.67;13.23;;;;;;;1.42;100.00;103601.50;5094659;28;20072;-65
2022/01/14 04:04:12;;;;;;;74.25;13.88;;;;;;;1.46;100.00;103619.00;5094979;28;20028;-65
2022/01/14 04:06:37;;;;;;;42.88;13.52;;;;;;;1.46;100.00;103624.16;5094861;28;20051;-65
2022/01/14 04:09:04;;;;;;;39.75;13.18;;;;;;;1.49;100.00;103629.53;5094826;28;20367;-65
2022/01/14 04:11:30;;;;;;;38.08;12.70;;;;;;;1.43;100.00;103605.00;5094459;28;20473;-64
2022/01/14 04:14:06;;;;;;;47.30;13.60;;;;;;;1.52;100.00;103619.44;5094410;28;20052;-65
2022/01/14 04:16:31;;;;;;;53.35;13.45;;;;;;;1.46;100.00;103598.34;5094702;28;20032;-64
2022/01/14 04:18:56;;;;;;;65.43;14.07;;;;;;;1.48;100.00;103614.84;5098004;28;20105;-64
2022/01/14 04:21:22;;;;;;;44.50;14.38;;;;;;;1.45;100.00;103599.16;5098671;28;20441;-65
2022/01/14 04:23:47;;;;;;;72.00;14.10;;;;;;;1.49;100.00;103602.84;5098519;28;20035;-64
2022/01/14 04:26:13;;;;;;;68.63;14.45;;;;;;;1.46;100.00;103606.09;5098559;28;20046;-64
2022/01/14 04:28:38;;;;;;;63.75;13.70;;;;;;;1.47;100.00;103599.25;5098489;28;20355;-66
2022/01/14 04:31:05;;;;;;;33.17;12.70;;;;;;;1.50;100.00;103610.69;5098380;28;20028;-64
2022/01/14 04:33:32;;;;;;;45.70;13.15;;;;;;;1.47;100.00;103607.88;5098466;28;20085;-65
2022/01/14 04:35:59;;;;;;;41.10;13.75;;;;;;;1.45;100.00;103594.00;5098339;28;20097;-64
2022/01/14 04:38:26;;;;;;;38.80;13.45;;;;;;;1.50;100.00;103612.38;5098502;28;20063;-64
2022/01/14 04:40:51;;;;;;;63.83;14.00;;;;;;;1.48;100.00;103596.78;5098119;28;20036;-66
2022/01/14 04:43:19;;;;;;;50.70;12.07;;;;;;;1.50;100.00;103592.63;5097932;28;20115;-64
2022/01/14 04:46:12;;;;;;;37.25;12.80;;;;;;;1.42;100.00;103580.88;5097938;28;20051;-63
2022/01/14 04:48:38;;;;;;;34.15;12.13;;;;;;;1.41;100.00;103576.50;5098230;28;20024;-64
2022/01/14 04:51:06;;;;;;;29.88;12.80;;;;;;;1.46;100.00;103580.28;5097772;28;20447;-64
2022/01/14 04:53:32;;;;;;;76.00;13.38;;;;;;;1.36;100.00;103575.31;5098076;28;20093;-64
2022/01/14 04:55:57;;;;;;;68.28;13.07;;;;;;;1.33;100.00;103588.91;5097512;28;20435;-64
2022/01/14 04:58:24;;;;;;;42.70;12.05;;;;;;;1.26;100.00;103558.31;5097761;28;20032;-66
2022/01/14 05:00:50;;;;;;;52.13;12.70;;;;;;;1.34;100.00;103577.78;5097735;28;20020;-64
2022/01/14 05:03:15;;;;;;;75.50;13.02;;;;;;;1.27;100.00;103560.09;5097705;28;20456;-65
2022/01/14 05:05:44;;;;;;;61.10;12.65;;;;;;;1.31;100.00;103561.22;5097559;28;20028;-66
2022/01/14 05:08:20;;;;;;;52.67;12.35;;;;;;;1.29;100.00;103557.63;5097719;28;20089;-64
2022/01/14 05:13:23;;;;;;;60.05;13.90;;;;;;;1.25;100.00;103547.88;5097396;28;20071;-66
2022/01/14 05:15:51;;;;;;;30.35;13.10;;;;;;;1.32;100.00;103550.09;5097693;28;20107;-64
2022/01/14 05:18:17;;;;;;;47.42;11.93;;;;;;;1.32;100.00;103550.09;5097044;28;20117;-64
2022/01/14 05:20:42;;;;;;;53.38;12.35;;;;;;;1.33;100.00;103552.78;5097210;28;20059;-64
2022/01/14 05:23:08;;;;;;;42.10;12.35;;;;;;;1.29;100.00;103545.63;5097597;28;20093;-65
2022/01/14 05:25:33;;;;;;;48.65;12.10;;;;;;;1.29;100.00;103553.38;5097412;28;20115;-66
2022/01/14 05:27:59;;;;;;;43.80;12.00;;;;;;;1.20;100.00;103544.13;5097093;28;20039;-64
2022/01/14 05:30:25;;;;;;;57.08;11.25;;;;;;;1.24;100.00;103556.41;5096306;28;20024;-65
2022/01/14 05:32:53;;;;;;;42.03;11.82;;;;;;;1.19;100.00;103537.19;5097074;28;20032;-63
2022/01/14 05:35:21;;;;;;;52.53;11.35;;;;;;;1.19;100.00;103562.97;5096565;28;20379;-63
2022/01/14 05:37:46;;;;;;;34.63;11.20;;;;;;;1.12;100.00;103550.44;5097333;28;20109;-67
2022/01/14 05:40:13;;;;;;;24.52;11.20;;;;;;;1.09;100.00;103545.94;5097019;28;20055;-64
2022/01/14 05:42:38;;;;;;;34.03;11.40;;;;;;;1.08;100.00;103543.25;5097228;28;20350;-64
2022/01/14 05:45:05;;;;;;;34.58;11.18;;;;;;;1.12;100.00;103561.63;5096864;28;20124;-65
2022/01/14 05:47:30;;;;;;;30.27;11.48;;;;;;;0.98;100.00;103537.50;5096449;28;20034;-65
2022/01/14 05:49:56;;;;;;;34.90;11.85;;;;;;;1.04;100.00;103542.16;5096587;28;20028;-66
2022/01/14 05:52:21;;;;;;;33.58;12.38;;;;;;;1.11;100.00;103540.91;5097127;28;20070;-64
2022/01/14 05:54:48;;;;;;;42.60;12.13;;;;;;;1.14;100.00;103548.84;5096818;28;20031;-65
2022/01/14 05:57:13;;;;;;;53.05;11.70;;;;;;;1.11;100.00;103533.16;5096653;28;20032;-64
2022/01/14 05:59:39;;;;;;;37.83;10.98;;;;;;;1.13;100.00;103537.63;5096560;28;20115;-63
2022/01/14 06:02:04;;;;;;;50.10;12.10;;;;;;;1.08;100.00;103538.09;5096731;28;20438;-63
2022/01/14 06:04:29;;;;;;;44.03;12.48;;;;;;;0.97;100.00;103537.38;5096173;28;20039;-66
2022/01/14 06:06:54;;;;;;;47.33;12.55;;;;;;;0.98;100.00;103545.22;5096354;28;20028;-64
2022/01/14 06:09:20;;;;;;;32.17;12.77;;;;;;;1.00;100.00;103545.34;5096709;28;20024;-65
2022/01/14 06:11:45;;;;;;;33.35;12.70;;;;;;;0.99;100.00;103540.97;5096173;28;20039;-66
2022/01/14 06:14:10;;;;;;;39.45;13.38;;;;;;;1.00;100.00;103542.75;5096196;28;20072;-64
2022/01/14 06:16:35;;;;;;;33.35;13.23;;;;;;;1.02;100.00;103541.19;5096137;28;20096;-66
2022/01/14 06:19:01;;;;;;;43.85;13.18;;;;;;;0.93;100.00;103528.53;5096193;28;20028;-63
2022/01/14 06:21:26;;;;;;;30.40;12.85;;;;;;;1.01;100.00;103548.03;5096455;28;20109;-63
2022/01/14 06:23:51;;;;;;;59.70;13.55;;;;;;;0.97;100.00;103552.84;5096170;28;20027;-63
2022/01/14 06:26:17;;;;;;;42.42;12.32;;;;;;;1.01;100.00;103547.13;5096152;28;20036;-65
2022/01/14 06:28:43;;;;;;;33.55;13.13;;;;;;;0.98;100.00;103555.53;5096054;28;20036;-64
2022/01/14 06:31:09;;;;;;;44.75;13.57;;;;;;;0.93;100.00;103535.38;5096281;28;20050;-63
2022/01/14 06:33:34;;;;;;;52.47;13.57;;;;;;;1.07;100.00;103560.41;5096131;28;20032;-65
2022/01/14 06:35:59;;;;;;;34.22;12.40;;;;;;;0.99;100.00;103556.44;5095501;28;20032;-64
2022/01/14 06:38:24;;;;;;;42.05;13.60;;;;;;;0.97;100.00;103545.13;5095996;28;20423;-63
2022/01/14 06:40:50;;;;;;;31.80;14.10;;;;;;;0.99;100.00;103553.84;5095614;28;20033;-64
2022/01/14 06:43:15;;;;;;;44.92;14.63;;;;;;;0.95;100.00;103552.75;5095835;28;20043;-65
2022/01/14 06:45:42;;;;;;;32.03;13.18;;;;;;;0.98;100.00;103545.22;5096038;28;20027;-64
2022/01/14 06:48:08;;;;;;;36.00;14.18;;;;;;;1.02;100.00;103544.66;5095443;28;20032;-64
2022/01/14 06:50:33;;;;;;;54.42;13.73;;;;;;;1.04;100.00;103539.56;5095803;28;20050;-64
2022/01/14 06:52:58;;;;;;;46.95;13.82;;;;;;;1.04;100.00;103534.41;5095389;28;20044;-65
2022/01/14 06:55:24;;;;;;;48.88;14.45;;;;;;;0.96;100.00;103551.06;5095647;28;20042;-64
2022/01/14 06:57:49;;;;;;;52.35;14.13;;;;;;;0.99;100.00;103546.13;5095435;28;20035;-65
2022/01/14 07:00:17;;;;;;;51.75;14.88;;;;;;;0.95;100.00;103541.53;5095539;28;20378;-64
2022/01/14 07:02:42;;;;;;;38.92;14.90;;;;;;;0.88;100.00;103529.91;5095483;28;20055;-64
2022/01/14 07:05:09;;;;;;;51.15;15.48;;;;;;;0.96;100.00;103546.81;5095515;28;20058;-65
2022/01/14 07:07:34;;;;;;;69.93;15.80;;;;;;;0.91;100.00;103543.00;5095184;28;20447;-63
2022/01/14 07:10:00;;;;;;;67.55;16.38;;;;;;;0.93;100.00;103549.16;5095217;28;20027;-65
2022/01/14 07:12:33;;;;;;;51.60;15.13;;;;;;;0.90;100.00;103556.69;5095266;28;20463;-66
2022/01/14 07:15:00;;;;;;;59.20;16.83;;;;;;;0.94;100.00;103570.69;5094917;28;20451;-64
2022/01/14 07:17:26;;;;;;;53.22;17.50;;;;;;;0.91;100.00;103550.72;5094926;28;20040;-63
2022/01/14 07:19:54;;;;;;;56.35;16.80;;;;;;;0.93;100.00;103553.41;5095030;28;20032;-66
2022/01/14 07:22:21;;;;;;;61.90;16.42;;;;;;;0.94;100.00;103565.53;5095050;28;20031;-64
2022/01/14 07:24:47;;;;;;;71.90;17.15;;;;;;;0.88;100.00;103567.66;5095053;28;20031;-65
2022/01/14 07:27:12;;;;;;;42.65;16.20;;;;;;;0.90;100.00;103569.56;5095169;28;20043;-64
2022/01/14 07:29:38;;;;;;;47.28;17.15;;;;;;;0.95;100.00;103569.91;5095078;28;20039;-64
2022/01/14 07:32:04;;;;;;;53.00;16.90;;;;;;;0.96;100.00;103554.53;5094963;28;20095;-64
2022/01/14 07:34:30;;;;;;;74.32;17.10;;;;;;;0.94;100.00;103556.09;5094649;28;20020;-65
2022/01/14 07:36:55;;;;;;;86.55;18.52;;;;;;;0.94;100.00;103566.41;5095060;28;20506;-65
2022/01/14 07:39:22;;;;;;;65.70;17.75;;;;;;;0.85;100.00;103542.59;5095240;28;20051;-66
2022/01/14 07:41:48;;;;;;;64.18;18.15;;;;;;;0.93;100.00;103576.63;5095268;28;20032;-64
2022/01/14 07:44:14;;;;;;;79.03;18.30;;;;;;;0.86;100.00;103564.13;5095090;28;20410;-64
2022/01/14 07:46:39;;;;;;;76.63;18.02;;;;;;;0.87;100.00;103574.50;5094923;28;20032;-64
2022/01/14 07:49:05;;;;;;;46.65;16.67;;;;;;;0.90;100.00;103564.41;5094896;28;20055;-63
2022/01/14 07:51:30;;;;;;;65.25;17.63;;;;;;;1.00;100.00;103560.81;5094937;28;20367;-64
2022/01/14 07:53:56;;;;;;;63.00;17.27;;;;;;;0.89;100.00;103557.47;5098329;28;20031;-64
2022/01/14 07:56:22;;;;;;;63.70;18.58;;;;;;;0.90;100.00;103553.19;5099263;28;20039;-65
2022/01/14 07:58:48;;;;;;;49.38;18.52;;;;;;;0.94;100.00;103556.09;5099017;28;20362;-64
2022/01/14 08:01:13;;;;;;;67.15;17.95;;;;;;;0.98;100.00;103555.53;5098647;28;20099;-63
2022/01/14 08:03:39;;;;;;;49.28;17.90;;;;;;;1.03;100.00;103556.75;5098965;28;20032;-64
2022/01/14 08:06:04;;;;;;;52.28;18.77;;;;;;;1.00;100.00;103555.66;5099047;28;20028;-64
2022/01/14 08:08:29;;;;;;;49.38;18.48;;;;;;;1.03;100.00;103561.91;5098725;28;20024;-65
2022/01/14 08:10:56;;;;;;;43.13;18.73;;;;;;;1.07;100.00;103573.31;5098864;28;20031;-63
2022/01/14 08:13:21;;;;;;;47.35;17.85;;;;;;;1.12;100.00;103565.91;5098274;28;20031;-63
2022/01/14 08:15:46;;;;;;;77.63;17.98;;;;;;;1.09;100.00;103576.00;5098665;28;20038;-64
2022/01/14 08:18:12;;;;;;;101.88;17.60;;;;;;;1.05;100.00;103564.56;5098610;28;20111;-66
2022/01/14 08:20:37;;;;;;;63.72;18.42;;;;;;;1.04;100.00;103563.69;5098864;28;20077;-65
2022/01/14 08:23:02;;;;;;;71.25;18.30;;;;;;;1.04;100.00;103552.47;5098567;28;20107;-65
2022/01/14 08:25:28;;;;;;;93.43;18.33;;;;;;;1.02;100.00;103544.66;5098570;28;20028;-68
2022/01/14 08:27:54;;;;;;;63.45;17.67;;;;;;;1.04;100.00;103552.47;5098855;28;20028;-63
2022/01/14 08:30:19;;;;;;;69.07;18.58;;;;;;;1.02;100.00;103548.91;5098432;28;20036;-63
2022/01/14 08:32:44;;;;;;;59.33;18.02;;;;;;;1.08;100.00;103553.56;5098481;28;20047;-64
2022/01/14 08:35:10;;;;;;;58.25;18.52;;;;;;;1.07;100.00;103542.38;5098405;28;20046;-65
2022/01/14 08:37:38;;;;;;;71.88;19.10;;;;;;;1.12;100.00;103541.00;5098339;28;20397;-66
2022/01/14 08:40:05;;;;;;;78.88;19.73;;;;;;;1.08;100.00;103540.69;5098452;28;20081;-65
2022/01/14 08:42:30;;;;;;;77.78;19.17;;;;;;;1.14;100.00;103543.69;5098682;28;20028;-62
2022/01/14 08:44:55;;;;;;;43.08;18.90;;;;;;;1.19;100.00;103548.38;5098073;28;20096;-64
2022/01/14 08:47:21;;;;;;;58.78;20.35;;;;;;;1.24;100.00;103577.03;5098031;28;20453;-66
2022/01/14 08:49:46;;;;;;;53.80;20.98;;;;;;;1.33;100.00;103572.53;5098094;28;20028;-65
2022/01/14 08:52:13;;;;;;;49.95;19.90;;;;;;;1.32;100.00;103571.63;5098056;28;20420;-64
2022/01/14 08:54:38;;;;;;;38.42;19.35;;;;;;;1.41;100.00;103576.50;5098325;28;20107;-65
2022/01/14 08:57:04;;;;;;;81.45;19.52;;;;;;;1.33;100.00;103549.31;5097997;28;20137;-65
2022/01/14 08:59:30;;;;;;;62.42;21.15;;;;;;;1.37;100.00;103538.41;5098036;28;20024;-63
2022/01/14 09:01:56;;;;;;;51.15;19.63;;;;;;;1.46;100.00;103557.06;5125140;27;20109;-65
2022/01/14 09:04:21;;;;;;;71.68;20.10;;;;;;;1.45;100.00;103546.66;5116554;28;20115;-66
2022/01/14 09:06:47;;;;;;;62.03;20.50;;;;;;;1.50;100.00;103537.53;5117960;28;20105;-66
2022/01/14 09:09:13;;;;;;;42.30;19.77;;;;;;;1.62;100.00;103559.88;5118011;28;20034;-63
2022/01/14 09:11:38;;;;;;;59.72;19.70;;;;;;;1.66;100.00;103553.25;5117902;28;20118;-63
2022/01/14 09:14:03;;;;;;;51.05;20.52;;;;;;;1.63;100.00;103540.13;5117572;28;20596;-64
2022/01/14 09:16:29;;;;;;;52.40;20.45;;;;;;;1.63;100.00;103561.69;5117768;28;20457;-66
2022/01/14 09:18:54;;;;;;;48.22;20.63;;;;;;;1.71;100.00;103557.03;5117739;28;20039;-65
2022/01/14 09:21:19;;;;;;;59.75;21.77;;;;;;;1.74;100.00;103550.38;5117711;28;20355;-67
2022/01/14 09:23:53;;;;;;;86.78;21.77;;;;;;;1.70;100.00;103555.25;5117569;27;20068;-64
2022/01/14 09:26:20;;;;;;;56.55;21.00;;;;;;;1.81;100.00;103555.94;5117479;28;20031;-66
2022/01/14 09:28:45;;;;;;;63.38;20.08;;;;;;;1.81;100.00;103537.88;5117298;28;20349;-65
2022/01/14 09:31:11;;;;;;;65.40;20.13;;;;;;;1.81;100.00;103568.84;5117336;28;20107;-65
2022/01/14 09:33:38;;;;;;;77.40;20.65;;;;;;;1.71;100.00;103555.34;5117447;28;20059;-69
2022/01/14 09:36:04;;;;;;;53.70;21.38;;;;;;;1.76;100.00;103553.03;5117222;28;20354;-64
2022/01/14 09:38:30;;;;;;;59.55;21.63;;;;;;;1.79;100.00;103552.34;5117253;28;20031;-65
2022/01/14 09:40:56;;;;;;;70.43;20.90;;;;;;;1.89;100.00;103550.50;5098978;28;20412;-64
2022/01/14 09:43:21;;;;;;;61.17;21.08;;;;;;;1.90;100.00;103557.47;5117086;28;20036;-65
2022/01/14 09:45:50;;;;;;;63.00;21.80;;;;;;;1.97;100.00;103550.97;5117477;28;20077;-64
2022/01/14 09:48:16;;;;;;;57.35;21.75;;;;;;;2.00;100.00;103553.78;5117009;28;20340;-65
2022/01/14 09:50:43;;;;;;;54.30;22.52;;;;;;;2.21;100.00;103569.75;5116990;28;20027;-65
2022/01/14 09:53:14;;;;;;;69.28;23.95;;;;;;;2.34;100.00;103568.06;5117428;28;20032;-66
2022/01/14 09:55:40;;;;;;;59.53;22.80;;;;;;;2.34;100.00;103562.00;5117070;28;20435;-65
2022/01/14 09:58:05;;;;;;;47.00;21.73;;;;;;;2.46;100.00;103575.69;5110408;28;20429;-65
2022/01/14 10:00:32;;;;;;;44.83;20.83;;;;;;;2.46;100.00;103575.69;5117170;28;20354;-65
2022/01/14 10:02:57;;;;;;;46.53;20.90;;;;;;;2.47;100.00;103577.47;5112338;27;20107;-64
2022/01/14 10:05:38;;;;;;;39.58;21.13;;;;;;;2.42;100.00;103584.91;5121947;28;20421;-66
2022/01/14 10:08:07;;;;;;;39.78;21.70;;;;;;;2.35;100.00;103581.88;5117169;28;20032;-66
2022/01/14 10:10:36;;;;;;;51.88;23.00;;;;;;;2.29;100.00;103577.19;5116732;28;20100;-64
2022/01/14 10:13:23;;;;;;;50.95;22.80;;;;;;;2.29;100.00;103574.59;5116396;27;20066;-65
2022/01/14 10:15:52;;;;;;;56.92;22.90;;;;;;;2.34;100.00;103591.31;5075377;28;20043;-64
2022/01/14 10:18:20;;;;;;;56.35;23.50;;;;;;;2.35;100.00;103598.25;5076134;28;20116;-66
2022/01/14 10:20:46;;;;;;;48.92;24.27;;;;;;;2.41;100.00;103590.91;5075607;28;20067;-65
2022/01/14 10:23:15;;;;;;;48.67;25.15;;;;;;;2.46;100.00;103598.94;5075976;28;20443;-67
2022/01/14 10:25:41;;;;;;;47.85;23.95;;;;;;;2.43;100.00;103586.72;5075651;28;20040;-65
2022/01/14 10:28:18;;;;;;;42.03;22.20;;;;;;;2.50;100.00;103597.44;5075725;28;20037;-63
2022/01/14 10:30:46;;;;;;;42.58;22.85;;;;;;;2.46;100.00;103588.59;5075675;28;20032;-66
2022/01/14 10:33:12;;;;;;;43.88;22.95;;;;;;;2.51;100.00;103584.63;5075619;28;20089;-66
2022/01/14 10:35:42;;;;;;;45.28;23.33;;;;;;;2.57;100.00;103595.38;5075364;28;20032;-64
2022/01/14 10:38:10;;;;;;;45.05;23.10;;;;;;;2.58;100.00;103581.66;5075524;28;20047;-65
2022/01/14 10:40:41;;;;;;;41.10;22.42;;;;;;;2.59;100.00;103583.44;5075544;28;20181;-66
2022/01/14 10:43:12;;;;;;;46.78;23.13;;;;;;;2.53;100.00;103566.63;5075415;28;20360;-66
2022/01/14 10:45:38;;;;;;;48.03;24.33;;;;;;;2.62;100.00;103578.44;5075107;28;20123;-66
2022/01/14 10:48:07;;;;;;;44.22;23.35;;;;;;;2.68;100.00;103576.25;5074957;28;20032;-64
2022/01/14 10:50:37;;;;;;;45.78;23.23;;;;;;;2.66;100.00;103569.19;5075105;28;20115;-64
2022/01/14 10:53:22;;;;;;;44.53;22.88;;;;;;;2.73;100.00;103572.25;5075151;28;20420;-65
2022/01/14 10:55:50;;;;;;;39.30;22.17;;;;;;;2.79;100.00;103575.22;5074708;28;20443;-67
2022/01/14 10:58:22;;;;;;;44.28;23.25;;;;;;;2.83;100.00;103573.72;5075264;28;20102;-64
2022/01/14 11:00:54;;;;;;;45.15;24.33;;;;;;;2.76;100.00;103562.13;5074661;28;20072;-66
2022/01/14 11:03:39;;;;;;;43.72;22.98;;;;;;;2.74;100.00;103568.00;5075120;28;20115;-66
2022/01/14 11:06:31;;;;;;;43.33;23.33;;;;;;;2.80;100.00;103563.16;5075189;28;20036;-64
2022/01/14 11:09:03;;;;;;;41.28;22.48;;;;;;;2.82;100.00;103564.16;5075373;28;20024;-66
2022/01/14 11:11:30;;;;;;;46.97;23.63;;;;;;;2.78;100.00;103560.50;5074972;28;20048;-65
2022/01/14 11:13:56;;;;;;;47.15;24.90;;;;;;;2.78;100.00;103562.19;5087784;28;20051;-67
2022/01/14 11:16:21;;;;;;;50.05;24.55;;;;;;;2.83;100.00;103546.97;5115754;28;20091;-66
2022/01/14 11:18:48;;;;;;;47.28;24.75;;;;;;;2.88;100.00;103551.63;5115768;28;20110;-66
2022/01/14 11:23:58;;;;;;;50.15;25.33;;;;;;;2.96;100.00;103552.97;5115568;28;20047;-68
2022/01/14 11:26:29;;;;;;;46.83;24.48;;;;;;;2.97;100.00;103541.81;5115522;28;20028;-66
2022/01/14 11:29:01;;;;;;;46.25;25.08;;;;;;;3.00;100.00;103538.53;5115035;28;20437;-66
2022/01/14 11:31:35;;;;;;;43.67;24.63;;;;;;;3.03;100.00;103552.56;5114955;28;20180;-65